»·PEaware :: N4139Q KALW-8W5

N4139Q :: KALW-8W5

FLIGHT INFORMATION

Flight Status: Arrived
Operator: Privately registered:
United States
More flights under this callsign
Pilot: Joey C. (6821)
Aircraft: BEECH AIRCRAFT BARON
(BE58)
More flights by this aircraft type
Origin: KALW Walla Walla Regl
United States
Destination: 8W5 Apex Airpark
United States
More flights between these airports :: More routes between these airports
Route: PSC V204 ALDER OLM
File this flight plan on PilotEdge
Remarks:
Altitude:
(Current/Filed)
10,500ft
Speed:
(Current/Filed)
200kts
Departed: 04-Dec-20 12:56 PM
Arrived: 04-Dec-20 02:11 PM
Distance/Time
Traveled:
205nm/1:15
Distance/Time
To Go:
Arrived

Flight Plot

Page will automatically refresh every two minutes.

Flight plan parsing failed; only flown route is shown


Map Options




Map Legend


Flown Route
Filed Route
Departure Airport
Arrival Airport
Navaid (VOR, NDB)
Fix

Horizontal Profiles

Position Reports

Time Latitude Longitude Heading Altitude Ground
Speed
04-Dec-20 12:45 46.094625 -118.278640 305 1194ft 0kts
04-Dec-20 12:46 46.094625 -118.278640 305 1194ft 0kts
04-Dec-20 12:47 46.094625 -118.278640 305 1194ft 0kts
04-Dec-20 12:49 46.094625 -118.278640 305 1194ft 0kts
04-Dec-20 12:50 46.094625 -118.278640 305 1194ft 0kts
04-Dec-20 12:51 46.094625 -118.278640 305 1194ft 0kts
04-Dec-20 12:52 46.096008 -118.277757 37 1196ft 11kts
04-Dec-20 12:53 46.098191 -118.276054 359 1199ft 0kts
04-Dec-20 12:54 46.098191 -118.276054 359 1199ft 0kts
04-Dec-20 12:55 46.098191 -118.276054 359 1199ft 0kts
04-Dec-20 12:56 46.090273 -118.286493 216 1367ft 127kts
04-Dec-20 12:57 46.084811 -118.334878 287 3226ft 139kts
04-Dec-20 12:58 46.097869 -118.389201 289 4891ft 150kts
04-Dec-20 12:59 46.111734 -118.446419 289 6411ft 153kts
04-Dec-20 13:00 46.125727 -118.505140 289 8147ft 157kts
04-Dec-20 13:01 46.140138 -118.565276 289 9799ft 161kts
04-Dec-20 13:02 46.155872 -118.630931 289 10512ft 198kts
04-Dec-20 13:03 46.174574 -118.709685 288 10501ft 212kts
04-Dec-20 13:04 46.193745 -118.790877 288 10500ft 215kts
04-Dec-20 13:05 46.213080 -118.872919 288 10500ft 215kts
04-Dec-20 13:06 46.232282 -118.954664 288 10500ft 215kts
04-Dec-20 13:06 46.248309 -119.023121 288 10500ft 215kts
04-Dec-20 13:08 46.270635 -119.118844 288 10500ft 215kts
04-Dec-20 13:08 46.286296 -119.187276 288 10500ft 215kts
04-Dec-20 13:10 46.308202 -119.283503 288 10500ft 215kts
04-Dec-20 13:11 46.326860 -119.365741 288 10500ft 215kts
04-Dec-20 13:11 46.342446 -119.434686 288 10500ft 215kts
04-Dec-20 13:13 46.364084 -119.530842 288 10500ft 215kts
04-Dec-20 13:13 46.379523 -119.599694 288 10500ft 215kts
04-Dec-20 13:14 46.397941 -119.682129 287 10500ft 215kts
04-Dec-20 13:15 46.416367 -119.764889 287 10500ft 215kts
04-Dec-20 13:16 46.434723 -119.847721 287 10500ft 215kts
04-Dec-20 13:17 46.453526 -119.930176 288 10500ft 215kts
04-Dec-20 13:18 46.472451 -120.012621 288 10500ft 215kts
04-Dec-20 13:19 46.491297 -120.095200 288 10500ft 215kts
04-Dec-20 13:20 46.510154 -120.178097 288 10500ft 215kts
04-Dec-20 13:21 46.528881 -120.260722 288 10500ft 215kts
04-Dec-20 13:22 46.547516 -120.343392 288 10500ft 215kts
04-Dec-20 13:23 46.566105 -120.426120 288 10500ft 215kts
04-Dec-20 13:24 46.571214 -120.512562 271 10500ft 215kts
04-Dec-20 13:25 46.572065 -120.599931 271 10500ft 215kts
04-Dec-20 13:26 46.572947 -120.686695 270 10500ft 215kts
04-Dec-20 13:27 46.573786 -120.773668 270 10500ft 215kts
04-Dec-20 13:28 46.574554 -120.860856 270 10500ft 215kts
04-Dec-20 13:29 46.575260 -120.948269 270 10500ft 215kts
04-Dec-20 13:30 46.575901 -121.035259 270 10500ft 215kts
04-Dec-20 13:31 46.576471 -121.122657 270 10500ft 215kts
04-Dec-20 13:32 46.576974 -121.209805 270 10500ft 215kts
04-Dec-20 13:33 46.577410 -121.296825 270 10500ft 216kts
04-Dec-20 13:34 46.577782 -121.384393 270 10500ft 216kts
04-Dec-20 13:35 46.578085 -121.471582 270 10500ft 216kts
04-Dec-20 13:36 46.578323 -121.558823 270 10500ft 216kts
04-Dec-20 13:37 46.580099 -121.645604 285 10495ft 216kts
04-Dec-20 13:38 46.604353 -121.725242 295 10500ft 216kts
04-Dec-20 13:39 46.629813 -121.804534 294 10500ft 216kts
04-Dec-20 13:40 46.655039 -121.883874 294 10500ft 216kts
04-Dec-20 13:41 46.680150 -121.963157 294 10500ft 216kts
04-Dec-20 13:42 46.705109 -122.042160 294 10500ft 216kts
04-Dec-20 13:43 46.730147 -122.121666 294 10500ft 216kts
04-Dec-20 13:44 46.755096 -122.201176 294 10500ft 216kts
04-Dec-20 13:45 46.780006 -122.280815 294 10500ft 216kts
04-Dec-20 13:46 46.804849 -122.360488 294 10500ft 216kts
04-Dec-20 13:47 46.818502 -122.443681 262 10502ft 215kts
04-Dec-20 13:48 46.808671 -122.530244 260 10500ft 216kts
04-Dec-20 13:49 46.798762 -122.616608 260 10500ft 216kts
04-Dec-20 13:50 46.788990 -122.703154 263 10497ft 216kts
04-Dec-20 13:51 46.820564 -122.770523 328 10499ft 215kts
04-Dec-20 13:52 46.872131 -122.815108 329 10500ft 216kts
04-Dec-20 13:53 46.923768 -122.859963 329 10373ft 218kts
04-Dec-20 13:54 46.976727 -122.898490 355 9357ft 207kts
04-Dec-20 13:55 47.031454 -122.887578 9 8525ft 193kts
04-Dec-20 13:56 47.083740 -122.874496 9 7723ft 190kts
04-Dec-20 13:57 47.135669 -122.861780 9 6927ft 189kts
04-Dec-20 13:58 47.187684 -122.849026 9 6129ft 190kts
04-Dec-20 13:59 47.239687 -122.836257 9 5332ft 190kts
04-Dec-20 14:00 47.286621 -122.805642 22 4522ft 190kts
04-Dec-20 14:01 47.338399 -122.791574 6 3725ft 190kts
04-Dec-20 14:02 47.390795 -122.781957 6 3013ft 186kts
04-Dec-20 14:03 47.438922 -122.773140 6 2997ft 168kts
04-Dec-20 14:04 47.484717 -122.764741 6 2999ft 165kts
04-Dec-20 14:05 47.523804 -122.757654 6 2990ft 118kts
04-Dec-20 14:06 47.554456 -122.751926 6 2728ft 111kts
04-Dec-20 14:07 47.586509 -122.746543 6 2074ft 112kts
04-Dec-20 14:08 47.616961 -122.740721 7 1334ft 104kts
04-Dec-20 14:09 47.644149 -122.735378 6 708ft 96kts
04-Dec-20 14:10 47.658490 -122.732487 112 511ft 5kts
04-Dec-20 14:11 47.658139 -122.731146 178 500ft 0kts

Navigation Log

Ident Type
Flight plan parsing failed, navigation log unavailable